Nearby METAR Reports

 

KI68 - Lebanon, Ohio, USA
Distance from station: SW 1mi, 3km
Updated: Wed, 28-Jul-2021 9:35pm EDT
Clear
Clear
 Wind from calm
Wind: Calm
Temperature: 79°F , 26°C
Dew Point: 72°F , 22°C
Humidity: 79%
Barometer: 30.03 inHg , 1016.9 hPa
Clouds: Clear
Visibility: 10 miles , 16 km
2021/07/29 01:35 KI68 290135Z AUTO 00000KT 10SM CLR 26/22 A3003 RMK AO1 T02560216
KLEX - Lexington, Kentucky, USA
Distance from station: SE 25mi, 38km
Updated: Wed, 28-Jul-2021 8:54pm EDT
Clear
Clear
 Wind from N
Wind: N 3 mph , 6 km/h
Temperature: 81°F , 27°C
Heat Index: 84°F , 29°C
Dew Point: 68°F , 20°C
Humidity: 66%
Barometer: 30.04 inHg , 1017.3 hPa
Clouds: Clear
Visibility: 10 miles , 16 km
2021/07/29 00:54 KLEX 290054Z 35003KT 10SM CLR 27/20 A3004 RMK AO2 SLP162 T02720200
 
KFFT - Frankfort, Kentucky, USA
Distance from station: WNW 24mi, 38km
Updated: Wed, 28-Jul-2021 8:53pm EDT
Clear
Clear
 Wind from calm
Wind: Calm
Temperature: 79°F , 26°C
Dew Point: 72°F , 22°C
Humidity: 79%
Barometer: 30.03 inHg , 1016.9 hPa
Clouds: Clear
Visibility: 10 miles , 16 km
2021/07/29 00:53 KFFT 290053Z AUTO 00000KT 10SM CLR 26/22 A3003 RMK AO2 SLP159 T02610222
KIOB - Mount Sterling, Kentucky, USA
Distance from station: E 28mi, 46km
Updated: Wed, 28-Jul-2021 9:35pm EDT
Clear
Clear
 Wind from calm
Wind: Calm
Temperature: 77°F , 25°C
Dew Point: 72°F , 22°C
Humidity: 83%
Barometer: 30.06 inHg , 1017.9 hPa
Clouds: Clear
Visibility: 10 miles , 16 km
2021/07/29 01:35 KIOB 290135Z AUTO 00000KT 10SM CLR 25/22 A3006 RMK AO2 PWINO
 
KDVK - Danville, Kentucky, USA
Distance from station: SSW 35mi, 56km
Updated: Wed, 28-Jul-2021 9:15pm EDT
Clear
Clear
 Wind from calm
Wind: Calm
Temperature: 77°F , 25°C
Dew Point: 68°F , 20°C
Humidity: 74%
Barometer: 30.06 inHg , 1017.9 hPa
Clouds: Clear
Visibility: 10 miles , 16 km
2021/07/29 01:15 KDVK 290115Z AUTO 00000KT 10SM CLR 25/20 A3006 RMK AO2
K6I2 - Springfield, Kentucky, USA
Distance from station: SW 49mi, 80km
Updated: Mon, 26-Jul-2021 11:55am EDT
NOT Current
Partly cloudy
Partly cloudy
 Wind from calm
Wind: Calm
Temperature: 86°F , 30°C
Heat Index: 97°F , 36°C
Dew Point: 77°F , 25°C
Humidity: 75%
Barometer: 30.02 inHg , 1016.6 hPa
Clouds: Partly cloudy
Visibility: 10 miles , 16 km
Cloud details: Partly cloudy 2400 ft
2021/07/26 15:55 K6I2 261555Z AUTO 00000KT 10SM SCT024 30/25 A3002 RMK AO2
 
KSYM - Morehead, Kentucky, USA
Distance from station: ENE 51mi, 83km
Updated: Wed, 28-Jul-2021 9:35pm EDT
Few Clouds
Few Clouds
 Wind from calm
Wind: Calm
Temperature: 77°F , 25°C
Dew Point: 68°F , 20°C
Humidity: 74%
Barometer: 30.06 inHg , 1017.9 hPa
Clouds: Few Clouds
Visibility: 10 miles , 16 km
Cloud details: Few Clouds 5000 ft
Few Clouds 6000 ft
2021/07/29 01:35 KSYM 290135Z AUTO 00000KT 10SM FEW050 FEW060 25/20 A3006 RMK AO2
KFGX - Flemingsburg, Kentucky, USA
Distance from station: NE 54mi, 87km
Updated: Wed, 28-Jul-2021 9:15pm EDT
Clear
Clear
 Wind from calm
Wind: Calm
Temperature: 79°F , 26°C
Dew Point: 68°F , 20°C
Humidity: 70%
Barometer: 30.05 inHg , 1017.6 hPa
Clouds: Clear
Visibility: 10 miles , 16 km
2021/07/29 01:15 KFGX 290115Z AUTO 00000KT 10SM CLR 26/20 A3005 RMK AO2 T02620203
 
KLOU - Louisville/Bowmn, Kentucky, USA
Distance from station: W 64mi, 104km
Updated: Wed, 28-Jul-2021 8:53pm EDT
Clear
Clear
 Wind from N
Wind: N 3 mph , 6 km/h
Temperature: 86°F , 30°C
Heat Index: 91°F , 33°C
Dew Point: 70°F , 21°C
Humidity: 59%
Barometer: 30.01 inHg , 1016.3 hPa
Clouds: Clear
Visibility: 10 miles , 16 km
2021/07/29 00:53 KLOU 290053Z 36003KT 10SM CLR 30/21 A3001 RMK AO2 SLP157 T03000206
KSDF - Louisville, Kentucky, USA
Distance from station: W 68mi, 109km
Updated: Wed, 28-Jul-2021 8:56pm EDT
Mostly cloudy
Mostly cloudy
 Wind from W
Wind: W 8 mph , 13 km/h
Temperature: 84°F , 29°C
Heat Index: 89°F , 32°C
Dew Point: 72°F , 22°C
Humidity: 66%
Barometer: 30.01 inHg , 1016.3 hPa
Clouds: Mostly cloudy
Visibility: 10 miles , 16 km
Cloud details: Few Clouds 5000 ft
Few Clouds 25000 ft
Mostly cloudy 30000 ft
2021/07/29 00:56 KSDF 290056Z 28007KT 10SM FEW050 FEW250 BKN300 29/22 A3001 RMK AO2 SLP156 T02940217
 
KSME - Somerset, Kentucky, USA
Distance from station: S 69mi, 111km
Updated: Wed, 28-Jul-2021 9:13pm EDT
Clear
Clear
 Wind from calm
Wind: Calm
Temperature: 79°F , 26°C
Dew Point: 59°F , 15°C
Humidity: 51%
Barometer: 30.05 inHg , 1017.6 hPa
Clouds: Clear
Visibility: 10 miles , 16 km
2021/07/29 01:13 KSME 290113Z AUTO 00000KT 10SM CLR 26/15 A3005 RMK AO2
KCVG - Covington, Kentucky, USA
Distance from station: N 70mi, 113km
Updated: Wed, 28-Jul-2021 8:52pm EDT
Partly cloudy
Partly cloudy
 Wind from W
Wind: W 5 mph , 7 km/h
Temperature: 82°F , 28°C
Heat Index: 84°F , 29°C
Dew Point: 66°F , 19°C
Humidity: 58%
Barometer: 30.02 inHg , 1016.6 hPa
Clouds: Partly cloudy
Visibility: 9 miles , 14 km
Cloud details: Partly cloudy 30000 ft
2021/07/29 00:52 KCVG 290052Z 27004KT 9SM SCT300 28/19 A3002 RMK AO2 SLP154 T02780194
 
KLOZ - London, Kentucky, USA
Distance from station: SSE 70mi, 113km
Updated: Wed, 28-Jul-2021 8:53pm EDT
Clear
Clear
 Wind from calm
Wind: Calm
Temperature: 81°F , 27°C
Heat Index: 85°F , 29°C
Dew Point: 72°F , 22°C
Humidity: 74%
Barometer: 30.06 inHg , 1017.9 hPa
Clouds: Clear
Visibility: 10 miles , 16 km
2021/07/29 00:53 KLOZ 290053Z AUTO 00000KT 10SM CLR 27/22 A3006 RMK AO2 SLP165 T02670217
KJKL - Noctor/Jackson, Kentucky, USA
Distance from station: ESE 72mi, 115km
Updated: Wed, 28-Jul-2021 8:53pm EDT
Clear
Clear
 Wind from calm
Wind: Calm
Temperature: 81°F , 27°C
Heat Index: 82°F , 28°C
Dew Point: 63°F , 17°C
Humidity: 54%
Barometer: 30.07 inHg , 1018.3 hPa
Clouds: Clear
Visibility: 10 miles , 16 km
2021/07/29 00:53 KJKL 290053Z AUTO 00000KT 10SM CLR 27/17 A3007 RMK AO2 SLP165 T02720172
 
KIMS - Madison, Indiana, USA
Distance from station: NW 72mi, 116km
Updated: Wed, 28-Jul-2021 9:35pm EDT
Clear
Clear
 Wind from calm
Wind: Calm
Temperature: 77°F , 25°C
Dew Point: 77°F , 25°C
Humidity: 100%
Barometer: 30.05 inHg , 1017.6 hPa
Clouds: Clear
Visibility: 7 miles , 11 km
2021/07/29 01:35 KIMS 290135Z AUTO 00000KT 7SM CLR 25/25 A3005 RMK AO2
KLUK - Cincinnat/Lunken, Ohio, USA
Distance from station: N 73mi, 118km
Updated: Wed, 28-Jul-2021 8:53pm EDT
Clear
Clear
 Wind from NW
Wind: NW 6 mph , 9 km/h
Temperature: 84°F , 29°C
Heat Index: 87°F , 31°C
Dew Point: 68°F , 20°C
Humidity: 58%
Barometer: 30.01 inHg , 1016.3 hPa
Clouds: Clear
Visibility: 10 miles , 16 km
2021/07/29 00:53 KLUK 290053Z 31005KT 10SM CLR 29/20 A3001 RMK AO2 SLP157 T02890200
 
KI69 - Batavia, Ohio, USA
Distance from station: NNE 74mi, 119km
Updated: Wed, 28-Jul-2021 9:35pm EDT
Clear
Clear
 Wind from calm
Wind: Calm
Temperature: 79°F , 26°C
Dew Point: 70°F , 21°C
Humidity: 74%
Barometer: 30.04 inHg , 1017.3 hPa
Clouds: Clear
Visibility: 10 miles , 16 km
2021/07/29 01:35 KI69 290135Z AUTO 00000KT 10SM CLR 26/21 A3004 RMK AO2 T02590208